sensor_id;sensor_type;location;lat;lon;timestamp;temperature;humidity
75899;DHT22;64576;50.460;4.866;2023-07-31T00:00:29;16.09;92.78
75899;DHT22;64576;50.460;4.866;2023-07-31T00:02:55;16.09;92.70
75899;DHT22;64576;50.460;4.866;2023-07-31T00:05:20;16.11;92.76
75899;DHT22;64576;50.460;4.866;2023-07-31T00:07:46;16.12;92.47
75899;DHT22;64576;50.460;4.866;2023-07-31T00:10:12;16.23;91.85
75899;DHT22;64576;50.460;4.866;2023-07-31T00:12:38;16.22;91.97
75899;DHT22;64576;50.460;4.866;2023-07-31T00:15:05;16.22;91.90
75899;DHT22;64576;50.460;4.866;2023-07-31T00:17:30;16.23;91.67
75899;DHT22;64576;50.460;4.866;2023-07-31T00:19:56;16.25;91.73
75899;DHT22;64576;50.460;4.866;2023-07-31T00:22:21;16.22;91.97
75899;DHT22;64576;50.460;4.866;2023-07-31T00:24:47;16.26;91.54
75899;DHT22;64576;50.460;4.866;2023-07-31T00:27:12;16.36;91.31
75899;DHT22;64576;50.460;4.866;2023-07-31T00:29:37;16.41;91.05
75899;DHT22;64576;50.460;4.866;2023-07-31T00:32:03;16.41;91.17
75899;DHT22;64576;50.460;4.866;2023-07-31T00:34:28;16.35;91.35
75899;DHT22;64576;50.460;4.866;2023-07-31T00:36:54;16.28;91.76
75899;DHT22;64576;50.460;4.866;2023-07-31T00:39:19;16.28;91.52
75899;DHT22;64576;50.460;4.866;2023-07-31T00:41:44;16.29;91.66
75899;DHT22;64576;50.460;4.866;2023-07-31T00:44:10;16.28;91.56
75899;DHT22;64576;50.460;4.866;2023-07-31T00:46:36;16.33;91.31
75899;DHT22;64576;50.460;4.866;2023-07-31T00:49:01;16.32;91.44
75899;DHT22;64576;50.460;4.866;2023-07-31T00:51:27;16.35;91.18
75899;DHT22;64576;50.460;4.866;2023-07-31T00:53:53;16.33;91.23
75899;DHT22;64576;50.460;4.866;2023-07-31T00:56:19;16.41;91.05
75899;DHT22;64576;50.460;4.866;2023-07-31T00:58:45;16.42;90.96
75899;DHT22;64576;50.460;4.866;2023-07-31T01:01:10;16.35;91.19
75899;DHT22;64576;50.460;4.866;2023-07-31T01:03:35;16.39;91.01
75899;DHT22;64576;50.460;4.866;2023-07-31T01:08:33;16.39;91.18
75899;DHT22;64576;50.460;4.866;2023-07-31T01:11:12;16.42;91.14
75899;DHT22;64576;50.460;4.866;2023-07-31T01:13:40;16.38;91.23
75899;DHT22;64576;50.460;4.866;2023-07-31T01:16:07;16.39;91.10
75899;DHT22;64576;50.460;4.866;2023-07-31T01:18:32;16.36;91.22
75899;DHT22;64576;50.460;4.866;2023-07-31T01:21:16;16.33;91.46
75899;DHT22;64576;50.460;4.866;2023-07-31T01:26:34;16.29;91.79
75899;DHT22;64576;50.460;4.866;2023-07-31T01:29:08;16.28;91.90
75899;DHT22;64576;50.460;4.866;2023-07-31T01:31:36;16.25;92.09
75899;DHT22;64576;50.460;4.866;2023-07-31T01:34:02;16.14;92.37
75899;DHT22;64576;50.460;4.866;2023-07-31T01:36:30;16.12;92.54
75899;DHT22;64576;50.460;4.866;2023-07-31T01:38:59;16.08;92.76
75899;DHT22;64576;50.460;4.866;2023-07-31T01:41:25;16.09;92.75
75899;DHT22;64576;50.460;4.866;2023-07-31T01:43:51;16.14;92.62
75899;DHT22;64576;50.460;4.866;2023-07-31T01:46:16;16.11;92.70
75899;DHT22;64576;50.460;4.866;2023-07-31T01:48:41;16.14;92.48
75899;DHT22;64576;50.460;4.866;2023-07-31T01:51:07;16.14;92.53
75899;DHT22;64576;50.460;4.866;2023-07-31T01:53:32;16.12;92.49
75899;DHT22;64576;50.460;4.866;2023-07-31T01:55:58;16.05;92.72
75899;DHT22;64576;50.460;4.866;2023-07-31T01:58:23;16.14;92.41
75899;DHT22;64576;50.460;4.866;2023-07-31T02:00:48;16.14;92.27
75899;DHT22;64576;50.460;4.866;2023-07-31T02:03:14;16.14;92.22
75899;DHT22;64576;50.460;4.866;2023-07-31T02:05:49;16.12;92.24
75899;DHT22;64576;50.460;4.866;2023-07-31T02:08:15;16.09;92.36
75899;DHT22;64576;50.460;4.866;2023-07-31T02:10:40;16.08;92.36
75899;DHT22;64576;50.460;4.866;2023-07-31T02:13:06;16.11;92.27
75899;DHT22;64576;50.460;4.866;2023-07-31T02:15:31;16.09;92.44
75899;DHT22;64576;50.460;4.866;2023-07-31T02:17:57;16.06;92.57
75899;DHT22;64576;50.460;4.866;2023-07-31T02:20:22;16.09;92.60
75899;DHT22;64576;50.460;4.866;2023-07-31T02:22:48;16.06;92.62
75899;DHT22;64576;50.460;4.866;2023-07-31T02:25:13;16.04;92.67
75899;DHT22;64576;50.460;4.866;2023-07-31T02:27:39;16.11;92.39
75899;DHT22;64576;50.460;4.866;2023-07-31T02:30:05;16.08;92.32
75899;DHT22;64576;50.460;4.866;2023-07-31T02:32:30;16.12;92.13
75899;DHT22;64576;50.460;4.866;2023-07-31T02:34:56;16.11;92.24
75899;DHT22;64576;50.460;4.866;2023-07-31T02:37:21;16.18;92.01
75899;DHT22;64576;50.460;4.866;2023-07-31T02:39:47;16.18;91.73
75899;DHT22;64576;50.460;4.866;2023-07-31T02:42:13;16.25;91.42
75899;DHT22;64576;50.460;4.866;2023-07-31T02:44:39;16.30;91.24
75899;DHT22;64576;50.460;4.866;2023-07-31T02:47:04;16.30;91.23
75899;DHT22;64576;50.460;4.866;2023-07-31T02:49:29;16.28;91.11
75899;DHT22;64576;50.460;4.866;2023-07-31T02:51:55;16.29;91.01
75899;DHT22;64576;50.460;4.866;2023-07-31T02:54:20;16.23;91.33
75899;DHT22;64576;50.460;4.866;2023-07-31T02:56:47;16.23;91.25
75899;DHT22;64576;50.460;4.866;2023-07-31T02:59:13;16.28;91.08
75899;DHT22;64576;50.460;4.866;2023-07-31T03:01:38;16.26;91.27
75899;DHT22;64576;50.460;4.866;2023-07-31T03:04:03;16.22;91.26
75899;DHT22;64576;50.460;4.866;2023-07-31T03:06:29;16.18;91.41
75899;DHT22;64576;50.460;4.866;2023-07-31T03:08:54;16.15;91.56
75899;DHT22;64576;50.460;4.866;2023-07-31T03:11:20;16.18;91.50
75899;DHT22;64576;50.460;4.866;2023-07-31T03:13:45;16.21;91.40
75899;DHT22;64576;50.460;4.866;2023-07-31T03:16:10;16.18;91.48
75899;DHT22;64576;50.460;4.866;2023-07-31T03:18:36;16.19;91.63
75899;DHT22;64576;50.460;4.866;2023-07-31T03:21:01;16.21;91.58
75899;DHT22;64576;50.460;4.866;2023-07-31T03:23:27;16.26;91.56
75899;DHT22;64576;50.460;4.866;2023-07-31T03:26:00;16.25;91.54
75899;DHT22;64576;50.460;4.866;2023-07-31T03:28:25;16.22;91.69
75899;DHT22;64576;50.460;4.866;2023-07-31T03:30:51;16.28;91.53
75899;DHT22;64576;50.460;4.866;2023-07-31T03:33:17;16.25;91.62
75899;DHT22;64576;50.460;4.866;2023-07-31T03:35:43;16.23;91.73
75899;DHT22;64576;50.460;4.866;2023-07-31T03:38:08;16.22;91.93
75899;DHT22;64576;50.460;4.866;2023-07-31T03:40:34;16.18;92.00
75899;DHT22;64576;50.460;4.866;2023-07-31T03:42:59;16.19;91.99
75899;DHT22;64576;50.460;4.866;2023-07-31T03:45:24;16.18;92.13
75899;DHT22;64576;50.460;4.866;2023-07-31T03:47:50;16.14;92.20
75899;DHT22;64576;50.460;4.866;2023-07-31T03:50:15;16.12;92.17
75899;DHT22;64576;50.460;4.866;2023-07-31T03:52:41;16.15;92.11
75899;DHT22;64576;50.460;4.866;2023-07-31T03:55:07;16.16;92.01
75899;DHT22;64576;50.460;4.866;2023-07-31T03:57:32;16.15;92.05
75899;DHT22;64576;50.460;4.866;2023-07-31T03:59:58;16.18;91.92
75899;DHT22;64576;50.460;4.866;2023-07-31T04:02:23;16.12;92.03
75899;DHT22;64576;50.460;4.866;2023-07-31T04:04:48;16.05;92.18
75899;DHT22;64576;50.460;4.866;2023-07-31T04:07:14;16.19;91.69
75899;DHT22;64576;50.460;4.866;2023-07-31T04:09:39;16.16;91.57
75899;DHT22;64576;50.460;4.866;2023-07-31T04:12:05;16.09;91.91
75899;DHT22;64576;50.460;4.866;2023-07-31T04:14:30;16.08;91.98
75899;DHT22;64576;50.460;4.866;2023-07-31T04:16:56;16.14;91.67
75899;DHT22;64576;50.460;4.866;2023-07-31T04:19:21;16.21;91.41
75899;DHT22;64576;50.460;4.866;2023-07-31T04:21:46;16.23;91.27
75899;DHT22;64576;50.460;4.866;2023-07-31T04:24:12;16.21;91.28
75899;DHT22;64576;50.460;4.866;2023-07-31T04:26:37;16.26;91.04
75899;DHT22;64576;50.460;4.866;2023-07-31T04:29:02;16.29;90.98
75899;DHT22;64576;50.460;4.866;2023-07-31T04:31:28;16.29;90.82
75899;DHT22;64576;50.460;4.866;2023-07-31T04:33:53;16.29;90.63
75899;DHT22;64576;50.460;4.866;2023-07-31T04:36:18;16.22;91.02
75899;DHT22;64576;50.460;4.866;2023-07-31T04:38:44;16.21;91.10
75899;DHT22;64576;50.460;4.866;2023-07-31T04:41:09;16.16;91.44
75899;DHT22;64576;50.460;4.866;2023-07-31T04:43:34;16.11;91.87
75899;DHT22;64576;50.460;4.866;2023-07-31T04:46:00;16.08;92.11
75899;DHT22;64576;50.460;4.866;2023-07-31T04:48:25;16.06;92.05
75899;DHT22;64576;50.460;4.866;2023-07-31T04:50:51;16.08;92.04
75899;DHT22;64576;50.460;4.866;2023-07-31T04:53:16;15.98;92.44
75899;DHT22;64576;50.460;4.866;2023-07-31T04:55:41;16.01;92.47
75899;DHT22;64576;50.460;4.866;2023-07-31T04:58:07;16.01;92.42
75899;DHT22;64576;50.460;4.866;2023-07-31T05:00:33;16.04;92.51
75899;DHT22;64576;50.460;4.866;2023-07-31T05:02:58;16.09;92.01
75899;DHT22;64576;50.460;4.866;2023-07-31T05:05:24;16.12;91.95
75899;DHT22;64576;50.460;4.866;2023-07-31T05:07:49;16.11;91.98
75899;DHT22;64576;50.460;4.866;2023-07-31T05:10:14;16.14;91.92
75899;DHT22;64576;50.460;4.866;2023-07-31T05:12:40;16.11;91.88
75899;DHT22;64576;50.460;4.866;2023-07-31T05:15:06;16.06;91.90
75899;DHT22;64576;50.460;4.866;2023-07-31T05:17:31;16.06;91.90
75899;DHT22;64576;50.460;4.866;2023-07-31T05:19:57;16.09;91.89
75899;DHT22;64576;50.460;4.866;2023-07-31T05:22:22;16.19;91.13
75899;DHT22;64576;50.460;4.866;2023-07-31T05:24:48;16.26;90.69
75899;DHT22;64576;50.460;4.866;2023-07-31T05:27:13;16.28;90.79
75899;DHT22;64576;50.460;4.866;2023-07-31T05:29:40;16.32;90.34
75899;DHT22;64576;50.460;4.866;2023-07-31T05:32:06;16.35;90.20
75899;DHT22;64576;50.460;4.866;2023-07-31T05:34:31;16.39;90.57
75899;DHT22;64576;50.460;4.866;2023-07-31T05:36:57;16.30;90.84
75899;DHT22;64576;50.460;4.866;2023-07-31T05:39:22;16.22;90.94
75899;DHT22;64576;50.460;4.866;2023-07-31T05:41:47;16.23;90.51
75899;DHT22;64576;50.460;4.866;2023-07-31T05:44:13;16.33;90.39
75899;DHT22;64576;50.460;4.866;2023-07-31T05:46:38;16.38;89.96
75899;DHT22;64576;50.460;4.866;2023-07-31T05:49:04;16.41;89.60
75899;DHT22;64576;50.460;4.866;2023-07-31T05:51:29;16.42;90.03
75899;DHT22;64576;50.460;4.866;2023-07-31T05:53:54;16.38;90.23
75899;DHT22;64576;50.460;4.866;2023-07-31T05:56:20;16.43;90.12
75899;DHT22;64576;50.460;4.866;2023-07-31T05:58:45;16.42;89.73
75899;DHT22;64576;50.460;4.866;2023-07-31T06:01:11;16.55;89.62
75899;DHT22;64576;50.460;4.866;2023-07-31T06:03:36;16.61;89.13
75899;DHT22;64576;50.460;4.866;2023-07-31T06:06:02;16.76;88.65
75899;DHT22;64576;50.460;4.866;2023-07-31T06:08:27;16.83;88.03
75899;DHT22;64576;50.460;4.866;2023-07-31T06:10:52;16.88;87.97
75899;DHT22;64576;50.460;4.866;2023-07-31T06:13:18;16.83;88.14
75899;DHT22;64576;50.460;4.866;2023-07-31T06:15:43;16.63;88.85
75899;DHT22;64576;50.460;4.866;2023-07-31T06:18:08;16.56;89.14
75899;DHT22;64576;50.460;4.866;2023-07-31T06:20:34;16.56;89.15
75899;DHT22;64576;50.460;4.866;2023-07-31T06:22:59;16.57;89.01
75899;DHT22;64576;50.460;4.866;2023-07-31T06:25:25;16.55;89.00
75899;DHT22;64576;50.460;4.866;2023-07-31T06:27:50;16.48;89.48
75899;DHT22;64576;50.460;4.866;2023-07-31T06:30:16;16.43;89.53
75899;DHT22;64576;50.460;4.866;2023-07-31T06:32:42;16.33;90.14
75899;DHT22;64576;50.460;4.866;2023-07-31T06:35:08;16.12;91.33
75899;DHT22;64576;50.460;4.866;2023-07-31T06:37:33;15.90;92.42
75899;DHT22;64576;50.460;4.866;2023-07-31T06:39:58;15.74;93.14
75899;DHT22;64576;50.460;4.866;2023-07-31T06:42:24;15.74;93.33
75899;DHT22;64576;50.460;4.866;2023-07-31T06:44:49;15.71;93.27
75899;DHT22;64576;50.460;4.866;2023-07-31T06:47:15;15.67;93.36
75899;DHT22;64576;50.460;4.866;2023-07-31T06:49:40;15.66;93.63
75899;DHT22;64576;50.460;4.866;2023-07-31T06:52:06;15.64;93.12
75899;DHT22;64576;50.460;4.866;2023-07-31T06:54:31;15.67;93.41
75899;DHT22;64576;50.460;4.866;2023-07-31T06:56:57;15.73;93.04
75899;DHT22;64576;50.460;4.866;2023-07-31T06:59:22;15.83;93.04
75899;DHT22;64576;50.460;4.866;2023-07-31T07:01:49;15.86;92.48
75899;DHT22;64576;50.460;4.866;2023-07-31T07:04:14;15.86;92.44
75899;DHT22;64576;50.460;4.866;2023-07-31T07:06:40;15.81;91.91
75899;DHT22;64576;50.460;4.866;2023-07-31T07:09:05;15.90;91.68
75899;DHT22;64576;50.460;4.866;2023-07-31T07:11:32;15.94;91.73
75899;DHT22;64576;50.460;4.866;2023-07-31T07:13:57;15.91;91.75
75899;DHT22;64576;50.460;4.866;2023-07-31T07:16:22;15.94;91.58
75899;DHT22;64576;50.460;4.866;2023-07-31T07:18:48;16.06;90.75
75899;DHT22;64576;50.460;4.866;2023-07-31T07:21:13;16.23;90.28
75899;DHT22;64576;50.460;4.866;2023-07-31T07:23:42;16.46;89.19
75899;DHT22;64576;50.460;4.866;2023-07-31T07:26:07;16.61;88.78
75899;DHT22;64576;50.460;4.866;2023-07-31T07:28:32;17.00;87.77
75899;DHT22;64576;50.460;4.866;2023-07-31T07:30:58;17.21;86.79
75899;DHT22;64576;50.460;4.866;2023-07-31T07:33:23;17.11;86.66
75899;DHT22;64576;50.460;4.866;2023-07-31T07:35:49;16.98;86.84
75899;DHT22;64576;50.460;4.866;2023-07-31T07:38:14;17.15;86.65
75899;DHT22;64576;50.460;4.866;2023-07-31T07:40:44;17.49;85.00
75899;DHT22;64576;50.460;4.866;2023-07-31T07:43:12;17.38;85.40
75899;DHT22;64576;50.460;4.866;2023-07-31T07:45:37;17.38;85.42
75899;DHT22;64576;50.460;4.866;2023-07-31T07:48:03;17.22;85.56
75899;DHT22;64576;50.460;4.866;2023-07-31T07:50:28;17.22;86.10
75899;DHT22;64576;50.460;4.866;2023-07-31T07:52:54;17.26;85.60
75899;DHT22;64576;50.460;4.866;2023-07-31T07:55:19;17.35;85.08
75899;DHT22;64576;50.460;4.866;2023-07-31T07:57:44;17.45;84.79
75899;DHT22;64576;50.460;4.866;2023-07-31T08:00:11;17.52;84.78
75899;DHT22;64576;50.460;4.866;2023-07-31T08:02:37;17.25;85.13
75899;DHT22;64576;50.460;4.866;2023-07-31T08:05:02;17.25;85.35
75899;DHT22;64576;50.460;4.866;2023-07-31T08:07:28;17.07;85.89
75899;DHT22;64576;50.460;4.866;2023-07-31T08:09:53;17.04;86.13
75899;DHT22;64576;50.460;4.866;2023-07-31T08:12:19;17.04;86.90
75899;DHT22;64576;50.460;4.866;2023-07-31T08:14:44;16.69;88.43
75899;DHT22;64576;50.460;4.866;2023-07-31T08:17:09;16.55;90.09
75899;DHT22;64576;50.460;4.866;2023-07-31T08:19:35;16.38;90.57
75899;DHT22;64576;50.460;4.866;2023-07-31T08:22:00;16.28;91.44
75899;DHT22;64576;50.460;4.866;2023-07-31T08:24:26;16.76;92.32
75899;DHT22;64576;50.460;4.866;2023-07-31T08:26:51;16.53;91.37
75899;DHT22;64576;50.460;4.866;2023-07-31T08:29:17;16.73;91.90
75899;DHT22;64576;50.460;4.866;2023-07-31T08:31:42;16.97;91.44
75899;DHT22;64576;50.460;4.866;2023-07-31T08:34:09;16.87;91.21
75899;DHT22;64576;50.460;4.866;2023-07-31T08:36:34;16.90;90.77
75899;DHT22;64576;50.460;4.866;2023-07-31T08:39:00;16.56;91.95
75899;DHT22;64576;50.460;4.866;2023-07-31T08:41:25;16.59;92.19
75899;DHT22;64576;50.460;4.866;2023-07-31T08:43:51;16.50;92.76
75899;DHT22;64576;50.460;4.866;2023-07-31T08:46:17;16.61;92.82
75899;DHT22;64576;50.460;4.866;2023-07-31T08:48:44;16.94;92.86
75899;DHT22;64576;50.460;4.866;2023-07-31T08:51:10;16.71;92.21
75899;DHT22;64576;50.460;4.866;2023-07-31T08:53:36;16.83;92.29
75899;DHT22;64576;50.460;4.866;2023-07-31T08:56:03;16.98;91.71
75899;DHT22;64576;50.460;4.866;2023-07-31T08:58:31;16.92;92.20
75899;DHT22;64576;50.460;4.866;2023-07-31T09:00:59;16.92;92.53
75899;DHT22;64576;50.460;4.866;2023-07-31T09:03:26;17.22;92.14
75899;DHT22;64576;50.460;4.866;2023-07-31T09:05:51;16.97;92.18
75899;DHT22;64576;50.460;4.866;2023-07-31T09:08:20;16.97;92.95
75899;DHT22;64576;50.460;4.866;2023-07-31T09:10:46;17.01;92.23
75899;DHT22;64576;50.460;4.866;2023-07-31T09:13:13;16.94;92.63
75899;DHT22;64576;50.460;4.866;2023-07-31T09:15:39;16.94;91.65
75899;DHT22;64576;50.460;4.866;2023-07-31T09:18:06;16.85;91.56
75899;DHT22;64576;50.460;4.866;2023-07-31T09:20:31;17.05;90.97
75899;DHT22;64576;50.460;4.866;2023-07-31T09:23:05;17.10;90.97
75899;DHT22;64576;50.460;4.866;2023-07-31T09:25:32;17.19;90.64
75899;DHT22;64576;50.460;4.866;2023-07-31T09:27:59;17.35;90.11
75899;DHT22;64576;50.460;4.866;2023-07-31T09:30:25;17.49;89.42
75899;DHT22;64576;50.460;4.866;2023-07-31T09:32:52;17.79;88.43
75899;DHT22;64576;50.460;4.866;2023-07-31T09:35:29;18.05;87.39
75899;DHT22;64576;50.460;4.866;2023-07-31T09:38:00;17.79;87.96
75899;DHT22;64576;50.460;4.866;2023-07-31T09:40:36;18.24;87.37
75899;DHT22;64576;50.460;4.866;2023-07-31T09:43:04;18.53;85.91
75899;DHT22;64576;50.460;4.866;2023-07-31T09:45:34;18.66;85.71
75899;DHT22;64576;50.460;4.866;2023-07-31T09:48:02;18.57;85.54
75899;DHT22;64576;50.460;4.866;2023-07-31T09:50:29;18.67;85.57
75899;DHT22;64576;50.460;4.866;2023-07-31T09:52:55;18.77;85.34
75899;DHT22;64576;50.460;4.866;2023-07-31T09:55:22;19.18;83.88
75899;DHT22;64576;50.460;4.866;2023-07-31T09:57:50;19.27;84.37
75899;DHT22;64576;50.460;4.866;2023-07-31T10:00:23;20.01;82.31
75899;DHT22;64576;50.460;4.866;2023-07-31T10:02:54;20.04;82.00
75899;DHT22;64576;50.460;4.866;2023-07-31T10:05:21;20.83;79.90
75899;DHT22;64576;50.460;4.866;2023-07-31T10:07:53;20.31;80.75
75899;DHT22;64576;50.460;4.866;2023-07-31T10:10:19;19.90;81.46
75899;DHT22;64576;50.460;4.866;2023-07-31T10:12:46;20.07;81.41
75899;DHT22;64576;50.460;4.866;2023-07-31T10:15:14;19.62;82.75
75899;DHT22;64576;50.460;4.866;2023-07-31T10:17:40;18.96;83.78
75899;DHT22;64576;50.460;4.866;2023-07-31T10:20:07;18.73;84.90
75899;DHT22;64576;50.460;4.866;2023-07-31T10:22:34;18.45;85.59
75899;DHT22;64576;50.460;4.866;2023-07-31T10:25:00;18.36;85.83
75899;DHT22;64576;50.460;4.866;2023-07-31T10:27:26;18.57;85.42
75899;DHT22;64576;50.460;4.866;2023-07-31T10:29:55;18.83;84.54
75899;DHT22;64576;50.460;4.866;2023-07-31T10:32:22;18.93;83.93
75899;DHT22;64576;50.460;4.866;2023-07-31T10:34:52;18.72;84.09
75899;DHT22;64576;50.460;4.866;2023-07-31T10:37:40;19.28;83.14
75899;DHT22;64576;50.460;4.866;2023-07-31T10:40:19;19.54;82.37
75899;DHT22;64576;50.460;4.866;2023-07-31T10:42:52;19.75;81.79
75899;DHT22;64576;50.460;4.866;2023-07-31T10:45:39;20.01;81.01
75899;DHT22;64576;50.460;4.866;2023-07-31T10:48:14;20.35;79.60
75899;DHT22;64576;50.460;4.866;2023-07-31T10:50:49;20.53;79.04
75899;DHT22;64576;50.460;4.866;2023-07-31T10:53:36;21.11;78.25
75899;DHT22;64576;50.460;4.866;2023-07-31T10:56:07;21.08;78.43
75899;DHT22;64576;50.460;4.866;2023-07-31T10:58:33;21.82;76.39
75899;DHT22;64576;50.460;4.866;2023-07-31T11:01:02;22.81;74.67
75899;DHT22;64576;50.460;4.866;2023-07-31T11:03:47;21.65;76.51
75899;DHT22;64576;50.460;4.866;2023-07-31T11:06:16;21.14;77.83
75899;DHT22;64576;50.460;4.866;2023-07-31T11:08:46;20.73;79.26
75899;DHT22;64576;50.460;4.866;2023-07-31T11:11:14;20.13;80.03
75899;DHT22;64576;50.460;4.866;2023-07-31T11:13:41;19.98;80.32
75899;DHT22;64576;50.460;4.866;2023-07-31T11:16:08;20.28;80.84
75899;DHT22;64576;50.460;4.866;2023-07-31T11:18:35;20.25;80.33
75899;DHT22;64576;50.460;4.866;2023-07-31T11:21:03;19.92;81.01
75899;DHT22;64576;50.460;4.866;2023-07-31T11:23:28;19.67;81.16
75899;DHT22;64576;50.460;4.866;2023-07-31T11:25:59;20.38;79.39
75899;DHT22;64576;50.460;4.866;2023-07-31T11:28:30;21.23;77.67
75899;DHT22;64576;50.460;4.866;2023-07-31T11:30:57;21.08;77.05
75899;DHT22;64576;50.460;4.866;2023-07-31T11:33:24;20.68;78.37
75899;DHT22;64576;50.460;4.866;2023-07-31T11:35:52;21.23;77.76
75899;DHT22;64576;50.460;4.866;2023-07-31T11:38:26;21.55;76.84
75899;DHT22;64576;50.460;4.866;2023-07-31T11:40:57;20.80;78.19
75899;DHT22;64576;50.460;4.866;2023-07-31T11:43:26;20.38;79.27
75899;DHT22;64576;50.460;4.866;2023-07-31T11:45:54;20.40;79.42
75899;DHT22;64576;50.460;4.866;2023-07-31T11:48:27;20.32;79.87
75899;DHT22;64576;50.460;4.866;2023-07-31T11:51:11;20.89;78.47
75899;DHT22;64576;50.460;4.866;2023-07-31T11:53:44;21.10;77.39
75899;DHT22;64576;50.460;4.866;2023-07-31T11:56:14;20.41;79.53
75899;DHT22;64576;50.460;4.866;2023-07-31T11:58:42;20.00;80.51
75899;DHT22;64576;50.460;4.866;2023-07-31T12:01:10;19.85;81.38
75899;DHT22;64576;50.460;4.866;2023-07-31T12:03:44;19.70;81.55
75899;DHT22;64576;50.460;4.866;2023-07-31T12:06:20;19.79;81.02
75899;DHT22;64576;50.460;4.866;2023-07-31T12:09:11;19.94;80.85
75899;DHT22;64576;50.460;4.866;2023-07-31T12:11:48;20.00;80.81
75899;DHT22;64576;50.460;4.866;2023-07-31T12:14:23;20.11;80.41
75899;DHT22;64576;50.460;4.866;2023-07-31T12:16:57;20.23;80.33
75899;DHT22;64576;50.460;4.866;2023-07-31T12:19:26;20.51;79.86
75899;DHT22;64576;50.460;4.866;2023-07-31T12:21:59;20.55;79.57
75899;DHT22;64576;50.460;4.866;2023-07-31T12:24:29;21.17;77.96
75899;DHT22;64576;50.460;4.866;2023-07-31T12:26:56;20.93;78.06
75899;DHT22;64576;50.460;4.866;2023-07-31T12:29:35;20.65;79.03
75899;DHT22;64576;50.460;4.866;2023-07-31T12:32:26;20.10;79.67
75899;DHT22;64576;50.460;4.866;2023-07-31T12:35:05;19.93;80.87
75899;DHT22;64576;50.460;4.866;2023-07-31T12:37:40;20.03;80.61
75899;DHT22;64576;50.460;4.866;2023-07-31T12:40:12;19.94;80.38
75899;DHT22;64576;50.460;4.866;2023-07-31T12:42:42;19.54;81.93
75899;DHT22;64576;50.460;4.866;2023-07-31T12:45:15;19.18;82.55
75899;DHT22;64576;50.460;4.866;2023-07-31T12:47:40;19.36;82.54
75899;DHT22;64576;50.460;4.866;2023-07-31T12:50:08;19.27;82.54
75899;DHT22;64576;50.460;4.866;2023-07-31T12:52:36;19.22;82.69
75899;DHT22;64576;50.460;4.866;2023-07-31T12:55:02;19.11;83.42
75899;DHT22;64576;50.460;4.866;2023-07-31T12:57:31;19.10;83.34
75899;DHT22;64576;50.460;4.866;2023-07-31T13:00:00;19.25;83.16
75899;DHT22;64576;50.460;4.866;2023-07-31T13:02:31;19.24;83.38
75899;DHT22;64576;50.460;4.866;2023-07-31T13:05:02;19.79;83.11
75899;DHT22;64576;50.460;4.866;2023-07-31T13:07:31;19.69;83.04
75899;DHT22;64576;50.460;4.866;2023-07-31T13:09:58;19.11;85.83
75899;DHT22;64576;50.460;4.866;2023-07-31T13:12:24;19.18;85.62
75899;DHT22;64576;50.460;4.866;2023-07-31T13:14:50;19.21;84.99
75899;DHT22;64576;50.460;4.866;2023-07-31T13:17:18;19.11;85.70
75899;DHT22;64576;50.460;4.866;2023-07-31T13:19:44;19.28;85.49
75899;DHT22;64576;50.460;4.866;2023-07-31T13:22:16;18.87;85.57
75899;DHT22;64576;50.460;4.866;2023-07-31T13:24:42;18.72;86.36
75899;DHT22;64576;50.460;4.866;2023-07-31T13:27:08;18.63;86.40
75899;DHT22;64576;50.460;4.866;2023-07-31T13:29:34;18.59;86.33
75899;DHT22;64576;50.460;4.866;2023-07-31T13:32:01;18.52;87.14
75899;DHT22;64576;50.460;4.866;2023-07-31T13:34:26;18.24;88.14
75899;DHT22;64576;50.460;4.866;2023-07-31T13:36:55;17.94;89.53
75899;DHT22;64576;50.460;4.866;2023-07-31T13:39:24;17.80;90.78
75899;DHT22;64576;50.460;4.866;2023-07-31T13:41:53;17.83;90.20
75899;DHT22;64576;50.460;4.866;2023-07-31T13:44:21;17.90;89.78
75899;DHT22;64576;50.460;4.866;2023-07-31T13:46:47;18.15;89.77
75899;DHT22;64576;50.460;4.866;2023-07-31T13:49:13;17.98;89.72
75899;DHT22;64576;50.460;4.866;2023-07-31T13:51:39;17.69;90.99
75899;DHT22;64576;50.460;4.866;2023-07-31T13:54:05;17.46;91.57
75899;DHT22;64576;50.460;4.866;2023-07-31T13:56:32;17.38;91.90
75899;DHT22;64576;50.460;4.866;2023-07-31T13:58:58;17.42;92.72
75899;DHT22;64576;50.460;4.866;2023-07-31T14:01:23;17.39;92.36
75899;DHT22;64576;50.460;4.866;2023-07-31T14:03:49;17.31;91.90
75899;DHT22;64576;50.460;4.866;2023-07-31T14:06:15;17.31;92.30
75899;DHT22;64576;50.460;4.866;2023-07-31T14:08:40;17.26;92.32
75899;DHT22;64576;50.460;4.866;2023-07-31T14:11:15;17.50;92.18
75899;DHT22;64576;50.460;4.866;2023-07-31T14:13:44;17.57;93.14
75899;DHT22;64576;50.460;4.866;2023-07-31T14:16:42;17.19;94.00
75899;DHT22;64576;50.460;4.866;2023-07-31T14:19:20;17.07;94.28
75899;DHT22;64576;50.460;4.866;2023-07-31T14:21:58;17.18;94.74
75899;DHT22;64576;50.460;4.866;2023-07-31T14:24:36;17.55;94.33
75899;DHT22;64576;50.460;4.866;2023-07-31T14:27:25;17.47;94.48
75899;DHT22;64576;50.460;4.866;2023-07-31T14:29:57;17.36;94.60
75899;DHT22;64576;50.460;4.866;2023-07-31T14:32:27;17.24;95.28
75899;DHT22;64576;50.460;4.866;2023-07-31T14:34:53;16.97;95.94
75899;DHT22;64576;50.460;4.866;2023-07-31T14:37:25;17.10;96.21
75899;DHT22;64576;50.460;4.866;2023-07-31T14:39:53;17.28;95.12
75899;DHT22;64576;50.460;4.866;2023-07-31T14:42:23;17.59;94.17
75899;DHT22;64576;50.460;4.866;2023-07-31T14:44:53;18.10;92.89
75899;DHT22;64576;50.460;4.866;2023-07-31T14:47:22;18.00;92.38
75899;DHT22;64576;50.460;4.866;2023-07-31T14:49:50;18.02;92.49
75899;DHT22;64576;50.460;4.866;2023-07-31T14:52:17;17.84;92.61
75899;DHT22;64576;50.460;4.866;2023-07-31T14:54:45;17.67;93.10
75899;DHT22;64576;50.460;4.866;2023-07-31T14:57:12;17.80;93.47
75899;DHT22;64576;50.460;4.866;2023-07-31T14:59:40;17.73;93.44
75899;DHT22;64576;50.460;4.866;2023-07-31T15:02:07;17.76;93.72
75899;DHT22;64576;50.460;4.866;2023-07-31T15:04:37;17.62;93.63
75899;DHT22;64576;50.460;4.866;2023-07-31T15:07:12;17.55;93.14
75899;DHT22;64576;50.460;4.866;2023-07-31T15:09:42;17.46;93.48
75899;DHT22;64576;50.460;4.866;2023-07-31T15:12:11;17.39;93.97
75899;DHT22;64576;50.460;4.866;2023-07-31T15:14:39;17.31;94.12
75899;DHT22;64576;50.460;4.866;2023-07-31T15:17:10;17.21;95.03
75899;DHT22;64576;50.460;4.866;2023-07-31T15:19:39;17.12;95.55
75899;DHT22;64576;50.460;4.866;2023-07-31T15:22:08;17.26;95.59
75899;DHT22;64576;50.460;4.866;2023-07-31T15:24:40;17.28;95.65
75899;DHT22;64576;50.460;4.866;2023-07-31T15:27:09;17.21;95.07
75899;DHT22;64576;50.460;4.866;2023-07-31T15:29:37;17.12;95.21
75899;DHT22;64576;50.460;4.866;2023-07-31T15:32:04;17.01;95.96
75899;DHT22;64576;50.460;4.866;2023-07-31T15:34:31;16.90;96.14
75899;DHT22;64576;50.460;4.866;2023-07-31T15:36:56;16.94;96.29